sensor_id;sensor_type;location;lat;lon;timestamp;temperature;humidity
54082;DHT22;39986;50.770;0.266;2023-06-22T00:02:12;16.90;99.90
54082;DHT22;39986;50.770;0.266;2023-06-22T00:04:38;16.90;99.90
54082;DHT22;39986;50.770;0.266;2023-06-22T00:07:04;16.90;99.90
54082;DHT22;39986;50.770;0.266;2023-06-22T00:09:30;16.80;99.90
54082;DHT22;39986;50.770;0.266;2023-06-22T00:11:56;16.90;99.90
54082;DHT22;39986;50.770;0.266;2023-06-22T00:14:21;16.80;99.90
54082;DHT22;39986;50.770;0.266;2023-06-22T00:16:47;16.90;99.90
54082;DHT22;39986;50.770;0.266;2023-06-22T00:19:14;16.80;99.90
54082;DHT22;39986;50.770;0.266;2023-06-22T00:21:40;16.90;99.90
54082;DHT22;39986;50.770;0.266;2023-06-22T00:24:06;16.90;99.90
54082;DHT22;39986;50.770;0.266;2023-06-22T00:26:32;16.90;99.90
54082;DHT22;39986;50.770;0.266;2023-06-22T00:28:57;16.90;99.90
54082;DHT22;39986;50.770;0.266;2023-06-22T00:31:23;16.90;99.90
54082;DHT22;39986;50.770;0.266;2023-06-22T00:33:48;16.90;99.90
54082;DHT22;39986;50.770;0.266;2023-06-22T00:36:16;16.80;99.90
54082;DHT22;39986;50.770;0.266;2023-06-22T00:38:43;16.90;99.90
54082;DHT22;39986;50.770;0.266;2023-06-22T00:41:08;16.90;99.90
54082;DHT22;39986;50.770;0.266;2023-06-22T00:43:34;16.90;99.90
54082;DHT22;39986;50.770;0.266;2023-06-22T00:45:59;16.80;99.90
54082;DHT22;39986;50.770;0.266;2023-06-22T00:48:25;16.90;99.90
54082;DHT22;39986;50.770;0.266;2023-06-22T00:50:51;16.90;99.90
54082;DHT22;39986;50.770;0.266;2023-06-22T00:53:18;17.00;99.90
54082;DHT22;39986;50.770;0.266;2023-06-22T00:55:44;17.00;99.90
54082;DHT22;39986;50.770;0.266;2023-06-22T00:58:13;17.00;99.90
54082;DHT22;39986;50.770;0.266;2023-06-22T01:00:39;17.00;99.90
54082;DHT22;39986;50.770;0.266;2023-06-22T01:03:05;17.00;99.90
54082;DHT22;39986;50.770;0.266;2023-06-22T01:05:34;16.90;99.90
54082;DHT22;39986;50.770;0.266;2023-06-22T01:13:28;16.90;99.90
54082;DHT22;39986;50.770;0.266;2023-06-22T01:18:26;16.80;99.90
54082;DHT22;39986;50.770;0.266;2023-06-22T01:20:53;16.80;99.90
54082;DHT22;39986;50.770;0.266;2023-06-22T01:30:52;16.60;99.90
54082;DHT22;39986;50.770;0.266;2023-06-22T01:33:28;16.50;99.90
54082;DHT22;39986;50.770;0.266;2023-06-22T01:35:54;16.60;99.90
54082;DHT22;39986;50.770;0.266;2023-06-22T01:38:20;16.50;99.90
54082;DHT22;39986;50.770;0.266;2023-06-22T01:40:46;16.40;99.90
54082;DHT22;39986;50.770;0.266;2023-06-22T01:43:12;16.50;99.90
54082;DHT22;39986;50.770;0.266;2023-06-22T01:45:38;16.40;99.90
54082;DHT22;39986;50.770;0.266;2023-06-22T01:48:03;16.40;99.90
54082;DHT22;39986;50.770;0.266;2023-06-22T01:50:29;16.50;99.90
54082;DHT22;39986;50.770;0.266;2023-06-22T01:52:55;16.40;99.90
54082;DHT22;39986;50.770;0.266;2023-06-22T01:55:20;16.50;99.90
54082;DHT22;39986;50.770;0.266;2023-06-22T01:57:46;16.50;99.90
54082;DHT22;39986;50.770;0.266;2023-06-22T02:00:12;16.50;99.90
54082;DHT22;39986;50.770;0.266;2023-06-22T02:02:39;16.50;99.90
54082;DHT22;39986;50.770;0.266;2023-06-22T02:05:06;16.50;99.90
54082;DHT22;39986;50.770;0.266;2023-06-22T02:07:34;16.50;99.90
54082;DHT22;39986;50.770;0.266;2023-06-22T02:10:03;16.60;99.90
54082;DHT22;39986;50.770;0.266;2023-06-22T02:12:29;16.50;99.90
54082;DHT22;39986;50.770;0.266;2023-06-22T02:14:56;16.50;99.90
54082;DHT22;39986;50.770;0.266;2023-06-22T02:17:21;16.40;99.90
54082;DHT22;39986;50.770;0.266;2023-06-22T02:19:47;16.40;99.90
54082;DHT22;39986;50.770;0.266;2023-06-22T02:22:12;16.40;99.90
54082;DHT22;39986;50.770;0.266;2023-06-22T02:24:39;16.40;99.90
54082;DHT22;39986;50.770;0.266;2023-06-22T02:27:04;16.40;99.90
54082;DHT22;39986;50.770;0.266;2023-06-22T02:29:32;16.40;99.90
54082;DHT22;39986;50.770;0.266;2023-06-22T02:31:58;16.40;99.90
54082;DHT22;39986;50.770;0.266;2023-06-22T02:34:23;16.40;99.90
54082;DHT22;39986;50.770;0.266;2023-06-22T02:36:49;16.40;99.90
54082;DHT22;39986;50.770;0.266;2023-06-22T02:39:21;16.40;99.90
54082;DHT22;39986;50.770;0.266;2023-06-22T02:41:54;16.30;99.90
54082;DHT22;39986;50.770;0.266;2023-06-22T02:44:20;16.20;99.90
54082;DHT22;39986;50.770;0.266;2023-06-22T02:46:46;16.20;99.90
54082;DHT22;39986;50.770;0.266;2023-06-22T02:49:12;16.30;99.90
54082;DHT22;39986;50.770;0.266;2023-06-22T02:51:38;16.30;99.90
54082;DHT22;39986;50.770;0.266;2023-06-22T02:54:05;16.30;99.90
54082;DHT22;39986;50.770;0.266;2023-06-22T02:56:30;16.30;99.90
54082;DHT22;39986;50.770;0.266;2023-06-22T02:58:56;16.30;99.90
54082;DHT22;39986;50.770;0.266;2023-06-22T03:01:26;16.20;99.90
54082;DHT22;39986;50.770;0.266;2023-06-22T03:03:53;16.20;99.90
54082;DHT22;39986;50.770;0.266;2023-06-22T03:06:20;16.20;99.90
54082;DHT22;39986;50.770;0.266;2023-06-22T03:08:49;16.20;99.90
54082;DHT22;39986;50.770;0.266;2023-06-22T03:11:15;16.30;99.90
54082;DHT22;39986;50.770;0.266;2023-06-22T03:13:40;16.20;99.90
54082;DHT22;39986;50.770;0.266;2023-06-22T03:16:06;16.20;99.90
54082;DHT22;39986;50.770;0.266;2023-06-22T03:18:31;16.20;99.90
54082;DHT22;39986;50.770;0.266;2023-06-22T03:20:57;16.10;99.90
54082;DHT22;39986;50.770;0.266;2023-06-22T03:23:22;16.10;99.90
54082;DHT22;39986;50.770;0.266;2023-06-22T03:25:48;16.10;99.90
54082;DHT22;39986;50.770;0.266;2023-06-22T03:28:13;16.00;99.90
54082;DHT22;39986;50.770;0.266;2023-06-22T03:30:39;16.00;99.90
54082;DHT22;39986;50.770;0.266;2023-06-22T03:33:04;16.10;99.90
54082;DHT22;39986;50.770;0.266;2023-06-22T03:35:30;16.10;99.90
54082;DHT22;39986;50.770;0.266;2023-06-22T03:37:56;16.10;99.90
54082;DHT22;39986;50.770;0.266;2023-06-22T03:40:21;16.10;99.90
54082;DHT22;39986;50.770;0.266;2023-06-22T03:42:47;16.10;99.90
54082;DHT22;39986;50.770;0.266;2023-06-22T03:45:12;16.00;99.90
54082;DHT22;39986;50.770;0.266;2023-06-22T03:47:38;16.10;99.90
54082;DHT22;39986;50.770;0.266;2023-06-22T03:50:03;16.10;99.90
54082;DHT22;39986;50.770;0.266;2023-06-22T03:52:29;16.10;99.90
54082;DHT22;39986;50.770;0.266;2023-06-22T03:54:55;16.20;99.90
54082;DHT22;39986;50.770;0.266;2023-06-22T03:57:21;16.20;99.90
54082;DHT22;39986;50.770;0.266;2023-06-22T03:59:47;16.10;99.90
54082;DHT22;39986;50.770;0.266;2023-06-22T04:02:12;16.10;99.90
54082;DHT22;39986;50.770;0.266;2023-06-22T04:04:38;16.10;99.90
54082;DHT22;39986;50.770;0.266;2023-06-22T04:07:04;16.10;99.90
54082;DHT22;39986;50.770;0.266;2023-06-22T04:09:30;16.20;99.90
54082;DHT22;39986;50.770;0.266;2023-06-22T04:11:55;16.10;99.90
54082;DHT22;39986;50.770;0.266;2023-06-22T04:14:21;16.00;99.90
54082;DHT22;39986;50.770;0.266;2023-06-22T04:16:46;16.10;99.90
54082;DHT22;39986;50.770;0.266;2023-06-22T04:19:12;16.10;99.90
54082;DHT22;39986;50.770;0.266;2023-06-22T04:21:42;16.00;99.90
54082;DHT22;39986;50.770;0.266;2023-06-22T04:24:07;16.20;99.90
54082;DHT22;39986;50.770;0.266;2023-06-22T04:26:33;16.10;99.90
54082;DHT22;39986;50.770;0.266;2023-06-22T04:29:03;16.20;99.90
54082;DHT22;39986;50.770;0.266;2023-06-22T04:31:31;16.20;99.90
54082;DHT22;39986;50.770;0.266;2023-06-22T04:33:57;16.30;99.90
54082;DHT22;39986;50.770;0.266;2023-06-22T04:36:31;16.30;99.90
54082;DHT22;39986;50.770;0.266;2023-06-22T04:39:02;16.30;99.90
54082;DHT22;39986;50.770;0.266;2023-06-22T04:41:28;16.30;99.90
54082;DHT22;39986;50.770;0.266;2023-06-22T04:43:53;16.40;99.90
54082;DHT22;39986;50.770;0.266;2023-06-22T04:46:19;16.40;99.90
54082;DHT22;39986;50.770;0.266;2023-06-22T04:48:45;16.50;99.90
54082;DHT22;39986;50.770;0.266;2023-06-22T04:51:10;16.40;99.90
54082;DHT22;39986;50.770;0.266;2023-06-22T04:53:36;16.40;99.90
54082;DHT22;39986;50.770;0.266;2023-06-22T04:56:01;16.40;99.90
54082;DHT22;39986;50.770;0.266;2023-06-22T04:58:29;16.40;99.90
54082;DHT22;39986;50.770;0.266;2023-06-22T05:00:57;16.40;99.90
54082;DHT22;39986;50.770;0.266;2023-06-22T05:03:26;16.50;99.90
54082;DHT22;39986;50.770;0.266;2023-06-22T05:05:52;16.60;99.90
54082;DHT22;39986;50.770;0.266;2023-06-22T05:08:19;16.80;99.90
54082;DHT22;39986;50.770;0.266;2023-06-22T05:10:44;16.80;99.90
54082;DHT22;39986;50.770;0.266;2023-06-22T05:13:10;17.00;99.90
54082;DHT22;39986;50.770;0.266;2023-06-22T05:15:35;17.10;99.90
54082;DHT22;39986;50.770;0.266;2023-06-22T05:18:05;17.20;99.90
54082;DHT22;39986;50.770;0.266;2023-06-22T05:20:31;17.30;99.90
54082;DHT22;39986;50.770;0.266;2023-06-22T05:22:56;17.40;99.90
54082;DHT22;39986;50.770;0.266;2023-06-22T05:25:22;17.60;99.90
54082;DHT22;39986;50.770;0.266;2023-06-22T05:27:47;17.70;99.90
54082;DHT22;39986;50.770;0.266;2023-06-22T05:30:13;17.90;99.90
54082;DHT22;39986;50.770;0.266;2023-06-22T05:32:38;18.10;99.90
54082;DHT22;39986;50.770;0.266;2023-06-22T05:35:04;18.20;99.90
54082;DHT22;39986;50.770;0.266;2023-06-22T05:37:30;18.40;99.90
54082;DHT22;39986;50.770;0.266;2023-06-22T05:39:55;18.40;99.90
54082;DHT22;39986;50.770;0.266;2023-06-22T05:42:22;18.50;99.90
54082;DHT22;39986;50.770;0.266;2023-06-22T05:44:48;18.60;99.90
54082;DHT22;39986;50.770;0.266;2023-06-22T05:47:13;18.60;99.90
54082;DHT22;39986;50.770;0.266;2023-06-22T05:49:39;18.70;99.90
54082;DHT22;39986;50.770;0.266;2023-06-22T05:52:05;18.80;99.90
54082;DHT22;39986;50.770;0.266;2023-06-22T05:54:30;18.90;99.90
54082;DHT22;39986;50.770;0.266;2023-06-22T05:56:56;19.00;99.90
54082;DHT22;39986;50.770;0.266;2023-06-22T05:59:21;19.10;99.90
54082;DHT22;39986;50.770;0.266;2023-06-22T06:01:47;19.20;99.90
54082;DHT22;39986;50.770;0.266;2023-06-22T06:04:16;19.30;99.90
54082;DHT22;39986;50.770;0.266;2023-06-22T06:06:42;19.40;99.90
54082;DHT22;39986;50.770;0.266;2023-06-22T06:09:07;19.50;99.90
54082;DHT22;39986;50.770;0.266;2023-06-22T06:11:33;19.50;99.90
54082;DHT22;39986;50.770;0.266;2023-06-22T06:13:58;19.50;99.90
54082;DHT22;39986;50.770;0.266;2023-06-22T06:16:24;19.40;99.90
54082;DHT22;39986;50.770;0.266;2023-06-22T06:18:50;19.40;99.90
54082;DHT22;39986;50.770;0.266;2023-06-22T06:21:16;19.40;99.90
54082;DHT22;39986;50.770;0.266;2023-06-22T06:23:41;19.40;99.90
54082;DHT22;39986;50.770;0.266;2023-06-22T06:26:07;19.40;99.90
54082;DHT22;39986;50.770;0.266;2023-06-22T06:28:34;19.50;99.90
54082;DHT22;39986;50.770;0.266;2023-06-22T06:31:00;19.50;99.90
54082;DHT22;39986;50.770;0.266;2023-06-22T06:33:25;19.60;99.90
54082;DHT22;39986;50.770;0.266;2023-06-22T06:35:51;19.50;99.90
54082;DHT22;39986;50.770;0.266;2023-06-22T06:38:16;19.50;99.90
54082;DHT22;39986;50.770;0.266;2023-06-22T06:40:42;19.40;99.90
54082;DHT22;39986;50.770;0.266;2023-06-22T06:43:08;19.50;99.90
54082;DHT22;39986;50.770;0.266;2023-06-22T06:45:33;19.60;99.90
54082;DHT22;39986;50.770;0.266;2023-06-22T06:48:00;19.80;99.90
54082;DHT22;39986;50.770;0.266;2023-06-22T06:50:25;19.90;99.90
54082;DHT22;39986;50.770;0.266;2023-06-22T06:52:51;20.00;99.90
54082;DHT22;39986;50.770;0.266;2023-06-22T06:55:17;20.10;99.90
54082;DHT22;39986;50.770;0.266;2023-06-22T06:57:43;20.40;99.90
54082;DHT22;39986;50.770;0.266;2023-06-22T07:00:09;20.40;99.90
54082;DHT22;39986;50.770;0.266;2023-06-22T07:02:37;20.50;99.90
54082;DHT22;39986;50.770;0.266;2023-06-22T07:05:04;20.70;99.90
54082;DHT22;39986;50.770;0.266;2023-06-22T07:07:30;20.90;99.90
54082;DHT22;39986;50.770;0.266;2023-06-22T07:09:55;21.00;99.90
54082;DHT22;39986;50.770;0.266;2023-06-22T07:12:21;21.10;99.90
54082;DHT22;39986;50.770;0.266;2023-06-22T07:14:47;21.30;99.90
54082;DHT22;39986;50.770;0.266;2023-06-22T07:17:12;21.20;99.90
54082;DHT22;39986;50.770;0.266;2023-06-22T07:19:38;21.30;99.90
54082;DHT22;39986;50.770;0.266;2023-06-22T07:22:04;21.30;99.90
54082;DHT22;39986;50.770;0.266;2023-06-22T07:24:29;21.20;99.90
54082;DHT22;39986;50.770;0.266;2023-06-22T07:26:55;21.10;99.90
54082;DHT22;39986;50.770;0.266;2023-06-22T07:29:22;21.00;99.90
54082;DHT22;39986;50.770;0.266;2023-06-22T07:31:49;21.00;99.90
54082;DHT22;39986;50.770;0.266;2023-06-22T07:34:15;21.00;99.90
54082;DHT22;39986;50.770;0.266;2023-06-22T07:36:40;21.00;99.90
54082;DHT22;39986;50.770;0.266;2023-06-22T07:39:06;21.00;99.90
54082;DHT22;39986;50.770;0.266;2023-06-22T07:41:32;21.10;99.90
54082;DHT22;39986;50.770;0.266;2023-06-22T07:43:57;21.00;99.90
54082;DHT22;39986;50.770;0.266;2023-06-22T07:46:23;21.10;99.90
54082;DHT22;39986;50.770;0.266;2023-06-22T07:48:49;21.20;99.90
54082;DHT22;39986;50.770;0.266;2023-06-22T07:51:14;21.20;99.90
54082;DHT22;39986;50.770;0.266;2023-06-22T07:53:43;21.20;99.90
54082;DHT22;39986;50.770;0.266;2023-06-22T07:56:12;21.30;99.90
54082;DHT22;39986;50.770;0.266;2023-06-22T07:58:37;21.40;99.90
54082;DHT22;39986;50.770;0.266;2023-06-22T08:01:03;21.40;99.90
54082;DHT22;39986;50.770;0.266;2023-06-22T08:03:29;21.40;99.90
54082;DHT22;39986;50.770;0.266;2023-06-22T08:05:54;21.30;99.90
54082;DHT22;39986;50.770;0.266;2023-06-22T08:08:20;21.20;99.90
54082;DHT22;39986;50.770;0.266;2023-06-22T08:10:46;21.10;99.90
54082;DHT22;39986;50.770;0.266;2023-06-22T08:13:11;21.30;99.90
54082;DHT22;39986;50.770;0.266;2023-06-22T08:15:37;21.60;99.90
54082;DHT22;39986;50.770;0.266;2023-06-22T08:18:02;21.90;99.90
54082;DHT22;39986;50.770;0.266;2023-06-22T08:20:28;22.10;99.90
54082;DHT22;39986;50.770;0.266;2023-06-22T08:22:55;22.30;99.90
54082;DHT22;39986;50.770;0.266;2023-06-22T08:25:20;22.50;99.90
54082;DHT22;39986;50.770;0.266;2023-06-22T08:27:46;22.60;99.90
54082;DHT22;39986;50.770;0.266;2023-06-22T08:30:12;22.80;99.90
54082;DHT22;39986;50.770;0.266;2023-06-22T08:32:38;22.90;99.90
54082;DHT22;39986;50.770;0.266;2023-06-22T08:35:04;22.90;99.90
54082;DHT22;39986;50.770;0.266;2023-06-22T08:37:33;23.00;99.90
54082;DHT22;39986;50.770;0.266;2023-06-22T08:40:01;23.20;99.90
54082;DHT22;39986;50.770;0.266;2023-06-22T08:42:30;23.50;99.90
54082;DHT22;39986;50.770;0.266;2023-06-22T08:44:56;23.70;99.90
54082;DHT22;39986;50.770;0.266;2023-06-22T08:47:22;23.80;99.90
54082;DHT22;39986;50.770;0.266;2023-06-22T08:49:48;23.60;99.90
54082;DHT22;39986;50.770;0.266;2023-06-22T08:52:14;23.60;99.90
54082;DHT22;39986;50.770;0.266;2023-06-22T08:54:39;23.60;99.90
54082;DHT22;39986;50.770;0.266;2023-06-22T08:57:05;23.50;99.90
54082;DHT22;39986;50.770;0.266;2023-06-22T08:59:30;23.30;99.90
54082;DHT22;39986;50.770;0.266;2023-06-22T09:01:56;23.50;99.90
54082;DHT22;39986;50.770;0.266;2023-06-22T09:04:21;23.50;99.90
54082;DHT22;39986;50.770;0.266;2023-06-22T09:06:47;23.70;99.90
54082;DHT22;39986;50.770;0.266;2023-06-22T09:09:13;23.90;99.90
54082;DHT22;39986;50.770;0.266;2023-06-22T09:11:39;24.00;99.90
54082;DHT22;39986;50.770;0.266;2023-06-22T09:14:05;24.00;99.90
54082;DHT22;39986;50.770;0.266;2023-06-22T09:16:31;24.00;99.90
54082;DHT22;39986;50.770;0.266;2023-06-22T09:18:56;24.20;99.90
54082;DHT22;39986;50.770;0.266;2023-06-22T09:21:23;24.40;99.90
54082;DHT22;39986;50.770;0.266;2023-06-22T09:23:48;24.60;99.90
54082;DHT22;39986;50.770;0.266;2023-06-22T09:26:19;24.70;99.90
54082;DHT22;39986;50.770;0.266;2023-06-22T09:28:44;24.90;99.90
54082;DHT22;39986;50.770;0.266;2023-06-22T09:31:10;25.20;99.90
54082;DHT22;39986;50.770;0.266;2023-06-22T09:33:36;25.40;99.90
54082;DHT22;39986;50.770;0.266;2023-06-22T09:36:04;25.70;99.90
54082;DHT22;39986;50.770;0.266;2023-06-22T09:38:30;25.90;99.90
54082;DHT22;39986;50.770;0.266;2023-06-22T09:40:56;26.20;99.90
54082;DHT22;39986;50.770;0.266;2023-06-22T09:43:21;26.30;99.90
54082;DHT22;39986;50.770;0.266;2023-06-22T09:45:47;26.60;99.90
54082;DHT22;39986;50.770;0.266;2023-06-22T09:48:12;26.70;99.90
54082;DHT22;39986;50.770;0.266;2023-06-22T09:50:38;26.80;99.90
54082;DHT22;39986;50.770;0.266;2023-06-22T09:53:03;26.80;99.90
54082;DHT22;39986;50.770;0.266;2023-06-22T09:55:29;26.70;99.90
54082;DHT22;39986;50.770;0.266;2023-06-22T09:57:54;26.90;99.90
54082;DHT22;39986;50.770;0.266;2023-06-22T10:00:21;27.10;99.90
54082;DHT22;39986;50.770;0.266;2023-06-22T10:02:47;27.20;99.90
54082;DHT22;39986;50.770;0.266;2023-06-22T10:05:12;26.60;99.90
54082;DHT22;39986;50.770;0.266;2023-06-22T10:07:38;26.40;99.90
54082;DHT22;39986;50.770;0.266;2023-06-22T10:10:08;26.40;99.90
54082;DHT22;39986;50.770;0.266;2023-06-22T10:12:33;26.70;99.90
54082;DHT22;39986;50.770;0.266;2023-06-22T10:14:59;26.90;99.90
54082;DHT22;39986;50.770;0.266;2023-06-22T10:17:24;27.00;99.90
54082;DHT22;39986;50.770;0.266;2023-06-22T10:19:50;26.70;99.90
54082;DHT22;39986;50.770;0.266;2023-06-22T10:22:15;26.60;99.90
54082;DHT22;39986;50.770;0.266;2023-06-22T10:24:41;26.70;99.90
54082;DHT22;39986;50.770;0.266;2023-06-22T10:27:10;26.20;99.90
54082;DHT22;39986;50.770;0.266;2023-06-22T10:29:36;26.00;99.90
54082;DHT22;39986;50.770;0.266;2023-06-22T10:32:01;26.30;99.90
54082;DHT22;39986;50.770;0.266;2023-06-22T10:34:27;26.80;99.90
54082;DHT22;39986;50.770;0.266;2023-06-22T10:36:52;27.30;99.90
54082;DHT22;39986;50.770;0.266;2023-06-22T10:39:18;27.70;99.90
54082;DHT22;39986;50.770;0.266;2023-06-22T10:41:44;28.10;99.90
54082;DHT22;39986;50.770;0.266;2023-06-22T10:44:09;28.40;99.90
54082;DHT22;39986;50.770;0.266;2023-06-22T10:46:35;28.90;99.90
54082;DHT22;39986;50.770;0.266;2023-06-22T10:49:00;29.30;99.90
54082;DHT22;39986;50.770;0.266;2023-06-22T10:51:26;29.50;99.90
54082;DHT22;39986;50.770;0.266;2023-06-22T10:53:53;29.70;99.90
54082;DHT22;39986;50.770;0.266;2023-06-22T10:56:20;29.90;99.90
54082;DHT22;39986;50.770;0.266;2023-06-22T10:58:46;29.80;99.90
54082;DHT22;39986;50.770;0.266;2023-06-22T11:01:11;29.50;99.90
54082;DHT22;39986;50.770;0.266;2023-06-22T11:03:37;29.30;99.90
54082;DHT22;39986;50.770;0.266;2023-06-22T11:06:02;29.40;99.90
54082;DHT22;39986;50.770;0.266;2023-06-22T11:08:28;30.00;99.90
54082;DHT22;39986;50.770;0.266;2023-06-22T11:10:54;30.90;99.90
54082;DHT22;39986;50.770;0.266;2023-06-22T11:13:19;32.40;99.90
54082;DHT22;39986;50.770;0.266;2023-06-22T11:15:45;33.20;99.90
54082;DHT22;39986;50.770;0.266;2023-06-22T11:18:11;34.70;99.90
54082;DHT22;39986;50.770;0.266;2023-06-22T11:20:36;35.90;99.90
54082;DHT22;39986;50.770;0.266;2023-06-22T11:23:04;36.90;97.00
54082;DHT22;39986;50.770;0.266;2023-06-22T11:25:31;36.70;96.00
54082;DHT22;39986;50.770;0.266;2023-06-22T11:27:56;37.00;95.10
54082;DHT22;39986;50.770;0.266;2023-06-22T11:30:22;37.70;93.90
54082;DHT22;39986;50.770;0.266;2023-06-22T11:32:48;38.10;91.70
54082;DHT22;39986;50.770;0.266;2023-06-22T11:35:14;37.90;91.00
54082;DHT22;39986;50.770;0.266;2023-06-22T11:37:39;38.00;90.40
54082;DHT22;39986;50.770;0.266;2023-06-22T11:40:05;38.10;89.30
54082;DHT22;39986;50.770;0.266;2023-06-22T11:42:34;38.60;89.10
54082;DHT22;39986;50.770;0.266;2023-06-22T11:44:59;39.10;86.60
54082;DHT22;39986;50.770;0.266;2023-06-22T11:47:25;39.10;84.70
54082;DHT22;39986;50.770;0.266;2023-06-22T11:49:50;39.30;84.40
54082;DHT22;39986;50.770;0.266;2023-06-22T11:52:16;39.70;84.50
54082;DHT22;39986;50.770;0.266;2023-06-22T11:54:43;40.00;83.20
54082;DHT22;39986;50.770;0.266;2023-06-22T11:57:08;39.60;81.60
54082;DHT22;39986;50.770;0.266;2023-06-22T11:59:34;38.80;82.00
54082;DHT22;39986;50.770;0.266;2023-06-22T12:01:59;37.50;84.30
54082;DHT22;39986;50.770;0.266;2023-06-22T12:04:25;36.70;86.60
54082;DHT22;39986;50.770;0.266;2023-06-22T12:06:51;37.30;84.90
54082;DHT22;39986;50.770;0.266;2023-06-22T12:09:16;38.40;83.80
54082;DHT22;39986;50.770;0.266;2023-06-22T12:11:42;39.30;80.50
54082;DHT22;39986;50.770;0.266;2023-06-22T12:14:07;39.80;78.60
54082;DHT22;39986;50.770;0.266;2023-06-22T12:16:33;39.60;77.00
54082;DHT22;39986;50.770;0.266;2023-06-22T12:18:58;39.50;75.50
54082;DHT22;39986;50.770;0.266;2023-06-22T12:21:24;40.10;73.60
54082;DHT22;39986;50.770;0.266;2023-06-22T12:23:50;40.50;73.20
54082;DHT22;39986;50.770;0.266;2023-06-22T12:26:15;40.80;72.50
54082;DHT22;39986;50.770;0.266;2023-06-22T12:28:41;40.30;72.40
54082;DHT22;39986;50.770;0.266;2023-06-22T12:31:06;40.20;74.30
54082;DHT22;39986;50.770;0.266;2023-06-22T12:33:32;40.50;73.90
54082;DHT22;39986;50.770;0.266;2023-06-22T12:35:58;40.60;72.10
54082;DHT22;39986;50.770;0.266;2023-06-22T12:38:23;40.20;71.40
54082;DHT22;39986;50.770;0.266;2023-06-22T12:40:52;39.90;72.90
54082;DHT22;39986;50.770;0.266;2023-06-22T12:43:17;40.00;73.40
54082;DHT22;39986;50.770;0.266;2023-06-22T12:45:43;39.90;73.20
54082;DHT22;39986;50.770;0.266;2023-06-22T12:48:09;39.90;73.30
54082;DHT22;39986;50.770;0.266;2023-06-22T12:50:34;39.70;73.40
54082;DHT22;39986;50.770;0.266;2023-06-22T12:53:00;38.90;75.20
54082;DHT22;39986;50.770;0.266;2023-06-22T12:55:27;38.90;76.60
54082;DHT22;39986;50.770;0.266;2023-06-22T12:57:53;38.90;76.90
54082;DHT22;39986;50.770;0.266;2023-06-22T13:00:19;39.30;76.80
54082;DHT22;39986;50.770;0.266;2023-06-22T13:02:45;39.90;77.00
54082;DHT22;39986;50.770;0.266;2023-06-22T13:05:10;40.60;74.90
54082;DHT22;39986;50.770;0.266;2023-06-22T13:07:38;40.60;74.10
54082;DHT22;39986;50.770;0.266;2023-06-22T13:10:04;41.00;74.50
54082;DHT22;39986;50.770;0.266;2023-06-22T13:12:30;41.20;73.40
54082;DHT22;39986;50.770;0.266;2023-06-22T13:14:55;41.40;72.60
54082;DHT22;39986;50.770;0.266;2023-06-22T13:17:21;41.40;71.60
54082;DHT22;39986;50.770;0.266;2023-06-22T13:19:47;41.60;70.50
54082;DHT22;39986;50.770;0.266;2023-06-22T13:22:28;41.70;71.30
54082;DHT22;39986;50.770;0.266;2023-06-22T13:24:54;41.10;71.30
54082;DHT22;39986;50.770;0.266;2023-06-22T13:27:20;41.10;71.60
54082;DHT22;39986;50.770;0.266;2023-06-22T13:29:47;41.70;71.20
54082;DHT22;39986;50.770;0.266;2023-06-22T13:32:12;42.20;70.20
54082;DHT22;39986;50.770;0.266;2023-06-22T13:34:38;42.10;69.50
54082;DHT22;39986;50.770;0.266;2023-06-22T13:37:03;41.80;69.80
54082;DHT22;39986;50.770;0.266;2023-06-22T13:39:29;40.40;71.20
54082;DHT22;39986;50.770;0.266;2023-06-22T13:41:56;39.90;72.40
54082;DHT22;39986;50.770;0.266;2023-06-22T13:44:21;39.50;71.80
54082;DHT22;39986;50.770;0.266;2023-06-22T13:46:47;39.70;72.40
54082;DHT22;39986;50.770;0.266;2023-06-22T13:49:13;40.10;72.00
54082;DHT22;39986;50.770;0.266;2023-06-22T13:51:38;40.30;71.10
54082;DHT22;39986;50.770;0.266;2023-06-22T13:54:04;40.80;70.60
54082;DHT22;39986;50.770;0.266;2023-06-22T13:56:30;41.00;69.80
54082;DHT22;39986;50.770;0.266;2023-06-22T13:58:55;41.50;68.70
54082;DHT22;39986;50.770;0.266;2023-06-22T14:01:21;41.40;68.80
54082;DHT22;39986;50.770;0.266;2023-06-22T14:03:47;41.10;67.90
54082;DHT22;39986;50.770;0.266;2023-06-22T14:06:13;40.30;68.30
54082;DHT22;39986;50.770;0.266;2023-06-22T14:08:39;40.20;68.90
54082;DHT22;39986;50.770;0.266;2023-06-22T14:11:04;39.70;69.40
54082;DHT22;39986;50.770;0.266;2023-06-22T14:13:30;39.20;70.70
54082;DHT22;39986;50.770;0.266;2023-06-22T14:15:55;39.00;70.20
54082;DHT22;39986;50.770;0.266;2023-06-22T14:18:21;38.50;70.70
54082;DHT22;39986;50.770;0.266;2023-06-22T14:20:49;38.30;72.40
54082;DHT22;39986;50.770;0.266;2023-06-22T14:23:15;38.50;72.30
54082;DHT22;39986;50.770;0.266;2023-06-22T14:25:41;38.70;70.50
54082;DHT22;39986;50.770;0.266;2023-06-22T14:28:06;38.40;71.00
54082;DHT22;39986;50.770;0.266;2023-06-22T14:30:32;38.70;70.80
54082;DHT22;39986;50.770;0.266;2023-06-22T14:32:57;38.70;70.60
54082;DHT22;39986;50.770;0.266;2023-06-22T14:35:23;38.70;70.20
54082;DHT22;39986;50.770;0.266;2023-06-22T14:37:49;38.70;69.90
54082;DHT22;39986;50.770;0.266;2023-06-22T14:40:15;38.60;70.30
54082;DHT22;39986;50.770;0.266;2023-06-22T14:42:40;38.40;70.20
54082;DHT22;39986;50.770;0.266;2023-06-22T14:45:06;37.60;71.80
54082;DHT22;39986;50.770;0.266;2023-06-22T14:47:32;36.10;75.80
54082;DHT22;39986;50.770;0.266;2023-06-22T14:49:57;33.90;83.80
54082;DHT22;39986;50.770;0.266;2023-06-22T14:52:23;31.70;93.50
54082;DHT22;39986;50.770;0.266;2023-06-22T14:54:48;30.30;99.50
54082;DHT22;39986;50.770;0.266;2023-06-22T14:57:16;29.30;99.90
54082;DHT22;39986;50.770;0.266;2023-06-22T14:59:48;28.70;99.90
54082;DHT22;39986;50.770;0.266;2023-06-22T15:02:14;28.30;99.90
54082;DHT22;39986;50.770;0.266;2023-06-22T15:04:39;27.90;99.90
54082;DHT22;39986;50.770;0.266;2023-06-22T15:07:05;27.70;99.90
54082;DHT22;39986;50.770;0.266;2023-06-22T15:09:30;27.50;99.90
54082;DHT22;39986;50.770;0.266;2023-06-22T15:11:56;27.30;99.90
54082;DHT22;39986;50.770;0.266;2023-06-22T15:14:23;27.00;99.90
54082;DHT22;39986;50.770;0.266;2023-06-22T15:16:49;27.00;99.90
54082;DHT22;39986;50.770;0.266;2023-06-22T15:19:15;26.90;99.90
54082;DHT22;39986;50.770;0.266;2023-06-22T15:21:40;26.80;99.90
54082;DHT22;39986;50.770;0.266;2023-06-22T15:24:06;26.80;99.90
54082;DHT22;39986;50.770;0.266;2023-06-22T15:26:32;26.70;99.90
54082;DHT22;39986;50.770;0.266;2023-06-22T15:28:57;26.70;99.90
54082;DHT22;39986;50.770;0.266;2023-06-22T15:31:23;26.60;99.90
54082;DHT22;39986;50.770;0.266;2023-06-22T15:33:48;26.50;99.90
54082;DHT22;39986;50.770;0.266;2023-06-22T15:36:14;26.40;99.90
54082;DHT22;39986;50.770;0.266;2023-06-22T15:38:39;26.40;99.90